createdAt,value
2019-04-06T00:01:50.978Z,4.13
2019-04-06T00:04:19.888Z,7.90
2019-04-06T00:06:48.367Z,5.40
2019-04-06T00:09:16.939Z,4.53
2019-04-06T00:11:45.507Z,4.50
2019-04-06T00:14:14.003Z,2.23
2019-04-06T00:16:42.489Z,3.97
2019-04-06T00:19:11.027Z,4.60
2019-04-06T00:21:39.547Z,4.10
2019-04-06T00:24:08.169Z,7.77
2019-04-06T00:26:36.671Z,5.87
2019-04-06T00:29:05.267Z,4.43
2019-04-06T00:31:51.477Z,4.93
2019-04-06T00:34:20.174Z,5.63
2019-04-06T00:36:48.661Z,6.10
2019-04-06T00:39:17.228Z,3.43
2019-04-06T00:41:45.705Z,4.10
2019-04-06T00:44:16.712Z,6.40
2019-04-06T00:46:44.441Z,5.13
2019-04-06T00:49:13.831Z,5.87
2019-04-06T00:51:42.278Z,5.67
2019-04-06T00:54:10.805Z,6.13
2019-04-06T00:56:39.284Z,6.87
2019-04-06T00:59:07.764Z,5.43
2019-04-06T01:01:36.342Z,4.40
2019-04-06T01:04:04.914Z,4.47
2019-04-06T01:06:33.421Z,5.13
2019-04-06T01:09:01.919Z,5.37
2019-04-06T01:11:30.383Z,7.93
2019-04-06T01:13:58.888Z,4.17
2019-04-06T01:16:27.381Z,4.87
2019-04-06T01:18:55.923Z,5.00
2019-04-06T01:21:24.395Z,3.33
2019-04-06T01:23:52.901Z,4.83
2019-04-06T01:26:21.420Z,4.13
2019-04-06T01:28:50.055Z,2.53
2019-04-06T01:31:18.799Z,1.97
2019-04-06T01:33:47.311Z,3.33
2019-04-06T01:36:15.886Z,1.93
2019-04-06T01:38:44.361Z,2.07
2019-04-06T01:41:12.893Z,2.83
2019-04-06T01:43:41.950Z,3.07
2019-04-06T01:46:10.469Z,3.10
2019-04-06T01:48:38.919Z,1.83
2019-04-06T01:51:07.402Z,2.20
2019-04-06T01:53:38.773Z,3.10
2019-04-06T01:56:17.904Z,3.57
2019-04-06T01:58:37.502Z,3.83
2019-04-06T02:01:07.633Z,5.10
2019-04-06T02:03:37.524Z,6.77
2019-04-06T02:06:06.019Z,4.27
2019-04-06T02:08:34.528Z,5.97
2019-04-06T02:11:03.035Z,6.57
2019-04-06T02:13:31.536Z,3.60
2019-04-06T02:16:00.032Z,6.17
2019-04-06T02:18:28.522Z,8.33
2019-04-06T02:20:57.125Z,5.37
2019-04-06T02:23:25.765Z,4.30
2019-04-06T02:25:54.185Z,5.00
2019-04-06T02:28:22.685Z,4.40
2019-04-06T02:30:55.581Z,4.03
2019-04-06T02:33:28.373Z,4.97
2019-04-06T02:36:01.151Z,5.47
2019-04-06T02:38:38.235Z,5.07
2019-04-06T02:41:14.346Z,2.63
2019-04-06T02:43:42.843Z,2.97
2019-04-06T02:46:11.538Z,3.70
2019-04-06T02:48:39.972Z,3.13
2019-04-06T02:51:08.460Z,6.13
2019-04-06T02:53:36.962Z,4.17
2019-04-06T02:56:05.461Z,4.10
2019-04-06T02:58:34.118Z,3.47
2019-04-06T03:01:02.635Z,4.93
2019-04-06T03:04:01.423Z,3.00
2019-04-06T03:06:30.124Z,4.97
2019-04-06T03:08:58.588Z,4.43
2019-04-06T03:11:27.219Z,3.97
2019-04-06T03:13:55.792Z,3.37
2019-04-06T03:16:24.277Z,3.83
2019-04-06T03:18:52.763Z,4.17
2019-04-06T03:21:22.050Z,4.53
2019-04-06T03:23:52.194Z,5.00
2019-04-06T03:26:20.725Z,4.33
2019-04-06T03:28:49.314Z,3.27
2019-04-06T03:31:22.789Z,2.27
2019-04-06T03:33:48.060Z,4.43
2019-04-06T03:36:16.545Z,3.50
2019-04-06T03:38:45.007Z,3.73
2019-04-06T03:41:13.521Z,6.70
2019-04-06T03:43:42.156Z,4.23
2019-04-06T03:46:10.610Z,6.23
2019-04-06T03:48:39.177Z,6.77
2019-04-06T03:51:07.723Z,6.60
2019-04-06T03:53:36.217Z,5.97
2019-04-06T03:56:04.976Z,7.00
2019-04-06T03:58:33.879Z,4.90
2019-04-06T04:01:02.712Z,5.67
2019-04-06T04:03:31.208Z,6.30
2019-04-06T04:05:59.667Z,6.13
2019-04-06T04:08:28.174Z,6.87
2019-04-06T04:10:56.649Z,6.53
2019-04-06T04:13:25.397Z,7.20
2019-04-06T04:15:56.748Z,6.80
2019-04-06T04:18:24.107Z,6.23
2019-04-06T04:20:52.566Z,5.87
2019-04-06T04:23:21.061Z,5.73
2019-04-06T04:25:49.536Z,5.07
2019-04-06T04:28:18.009Z,5.30
2019-04-06T04:30:46.522Z,6.27
2019-04-06T04:33:15.116Z,8.80
2019-04-06T04:35:43.550Z,5.43
2019-04-06T04:38:12.039Z,6.07
2019-04-06T04:40:40.503Z,5.40
2019-04-06T04:43:08.995Z,6.10
2019-04-06T04:45:37.538Z,5.77
2019-04-06T04:48:06.057Z,4.87
2019-04-06T04:50:34.645Z,5.03
2019-04-06T04:53:03.132Z,4.73
2019-04-06T04:55:31.694Z,7.23
2019-04-06T04:58:00.241Z,4.57
2019-04-06T05:00:28.899Z,4.83
2019-04-06T05:02:57.860Z,7.70
2019-04-06T05:05:26.314Z,9.40
2019-04-06T05:07:54.923Z,5.70
2019-04-06T05:10:23.593Z,6.87
2019-04-06T05:12:52.204Z,6.67
2019-04-06T05:15:32.504Z,6.60
2019-04-06T05:18:01.349Z,7.80
2019-04-06T05:20:30.152Z,8.77
2019-04-06T05:22:58.641Z,6.87
2019-04-06T05:25:27.139Z,9.13
2019-04-06T05:27:55.619Z,9.07
2019-04-06T05:30:24.090Z,8.13
2019-04-06T05:32:52.633Z,8.37
2019-04-06T05:35:21.122Z,19.57
2019-04-06T05:37:49.635Z,17.03
2019-04-06T05:40:18.157Z,7.37
2019-04-06T05:42:46.772Z,7.93
2019-04-06T05:45:15.343Z,11.63
2019-04-06T05:47:44.084Z,10.03
2019-04-06T05:50:12.651Z,10.40
2019-04-06T05:52:41.269Z,11.07
2019-04-06T05:55:10.333Z,9.93
2019-04-06T05:57:38.822Z,10.47
2019-04-06T06:00:10.491Z,9.90
2019-04-06T06:02:41.339Z,9.23
2019-04-06T06:05:10.527Z,8.57
2019-04-06T06:07:39.667Z,9.63
2019-04-06T06:10:08.390Z,8.60
2019-04-06T06:12:36.837Z,9.47
2019-04-06T06:15:07.244Z,7.87
2019-04-06T06:17:35.706Z,8.23
2019-04-06T06:20:06.641Z,6.83
2019-04-06T06:22:35.160Z,7.90
2019-04-06T06:25:04.975Z,7.23
2019-04-06T06:27:33.777Z,7.70
2019-04-06T06:30:02.517Z,7.93
2019-04-06T06:32:31.450Z,6.40
2019-04-06T06:35:00.533Z,7.80
2019-04-06T06:37:29.225Z,9.20
2019-04-06T06:39:57.795Z,7.90
2019-04-06T06:42:26.264Z,7.97
2019-04-06T06:44:54.895Z,9.43
2019-04-06T06:47:23.394Z,8.67
2019-04-06T06:49:51.913Z,10.43
2019-04-06T06:52:20.376Z,10.97
2019-04-06T06:54:48.861Z,8.97
2019-04-06T06:57:17.523Z,10.07
2019-04-06T06:59:46.013Z,10.97
2019-04-06T07:02:14.719Z,9.20
2019-04-06T07:04:43.208Z,8.80
2019-04-06T07:07:11.911Z,11.43
2019-04-06T07:09:40.366Z,12.47
2019-04-06T07:12:08.860Z,13.37
2019-04-06T07:14:37.562Z,14.50
2019-04-06T07:17:06.178Z,13.03
2019-04-06T07:19:34.704Z,17.30
2019-04-06T07:22:03.360Z,12.83
2019-04-06T07:24:31.856Z,11.87
2019-04-06T07:27:00.387Z,16.73
2019-04-06T07:29:28.944Z,14.00
2019-04-06T07:31:57.732Z,14.33
2019-04-06T07:34:26.269Z,13.37
2019-04-06T07:36:54.740Z,12.20
2019-04-06T07:39:23.337Z,13.70
2019-04-06T07:41:51.899Z,11.50
2019-04-06T07:44:20.375Z,10.83
2019-04-06T07:46:48.876Z,10.90
2019-04-06T07:49:17.391Z,12.37
2019-04-06T07:51:45.874Z,15.90
2019-04-06T07:54:14.362Z,13.93
2019-04-06T07:56:43.289Z,10.57
2019-04-06T07:59:11.770Z,12.33
2019-04-06T08:01:40.375Z,11.03
2019-04-06T08:04:08.826Z,12.13
2019-04-06T08:06:37.299Z,11.30
2019-04-06T08:09:07.685Z,12.87
2019-04-06T08:11:36.117Z,12.07
2019-04-06T08:14:04.838Z,9.77
2019-04-06T08:16:33.260Z,11.87
2019-04-06T08:19:01.934Z,9.70
2019-04-06T08:21:30.487Z,9.57
2019-04-06T08:23:58.981Z,10.60
2019-04-06T08:26:27.486Z,7.73
2019-04-06T08:29:01.880Z,6.33
2019-04-06T08:31:26.356Z,12.53
2019-04-06T08:33:54.837Z,9.47
2019-04-06T08:36:23.396Z,11.77
2019-04-06T08:38:51.896Z,18.80
2019-04-06T08:41:20.379Z,13.60
2019-04-06T08:43:48.870Z,11.53
2019-04-06T08:46:17.385Z,10.90
2019-04-06T08:48:45.853Z,11.87
2019-04-06T08:51:14.661Z,14.47
2019-04-06T08:53:43.545Z,15.70
2019-04-06T08:56:12.037Z,10.43
2019-04-06T08:58:40.514Z,11.87
2019-04-06T09:01:09.007Z,11.97
2019-04-06T09:03:37.517Z,11.90
2019-04-06T09:06:06.142Z,12.50
2019-04-06T09:08:34.652Z,9.57
2019-04-06T09:11:03.164Z,9.20
2019-04-06T09:13:31.670Z,11.63
2019-04-06T09:16:00.150Z,12.00
2019-04-06T09:18:29.165Z,13.93
2019-04-06T09:20:57.985Z,11.53
2019-04-06T09:23:26.720Z,11.20
2019-04-06T09:25:55.363Z,11.90
2019-04-06T09:28:23.871Z,12.60
2019-04-06T09:30:52.370Z,12.00
2019-04-06T09:33:20.855Z,9.87
2019-04-06T09:35:49.351Z,10.13
2019-04-06T09:38:20.557Z,11.70
2019-04-06T09:40:50.942Z,11.27
2019-04-06T09:43:20.075Z,9.63
2019-04-06T09:45:50.491Z,10.63
2019-04-06T09:48:29.501Z,13.57
2019-04-06T09:51:08.694Z,9.90
2019-04-06T09:53:41.587Z,12.10
2019-04-06T09:56:14.491Z,13.13
2019-04-06T09:58:47.023Z,12.67
2019-04-06T10:01:37.970Z,11.60
2019-04-06T10:04:07.017Z,13.67
2019-04-06T10:06:53.081Z,12.57
2019-04-06T10:09:23.191Z,11.10
2019-04-06T10:11:59.348Z,11.60
2019-04-06T10:14:41.709Z,13.63
2019-04-06T10:17:17.855Z,10.17
2019-04-06T10:19:56.884Z,8.97
2019-04-06T10:22:42.209Z,9.10
2019-04-06T10:25:28.755Z,7.53
2019-04-06T10:28:07.627Z,10.13
2019-04-06T10:30:37.741Z,9.37
2019-04-06T10:33:10.718Z,9.47
2019-04-06T10:35:56.720Z,8.37
2019-04-06T10:38:26.869Z,9.13
2019-04-06T10:41:05.995Z,10.17
2019-04-06T10:43:42.070Z,9.27
2019-04-06T10:46:18.116Z,9.50
2019-04-06T10:48:51.084Z,9.13
2019-04-06T10:51:23.975Z,9.37
2019-04-06T10:53:59.878Z,10.00
2019-04-06T10:56:35.768Z,10.87
2019-04-06T10:59:14.948Z,11.70
2019-04-06T11:02:01.429Z,10.33
2019-04-06T11:04:40.083Z,10.90
2019-04-06T11:07:26.102Z,15.30
2019-04-06T11:10:08.182Z,13.23
2019-04-06T11:12:43.781Z,11.43
2019-04-06T11:15:32.594Z,11.50
2019-04-06T11:18:11.943Z,12.03
2019-04-06T11:20:48.383Z,12.60
2019-04-06T11:23:24.481Z,10.83
2019-04-06T11:25:54.707Z,10.97
2019-04-06T11:28:30.735Z,11.93
2019-04-06T11:31:06.800Z,12.63
2019-04-06T11:33:36.935Z,11.47
2019-04-06T11:36:19.442Z,11.83
2019-04-06T11:38:49.579Z,16.23
2019-04-06T11:41:36.019Z,11.03
2019-04-06T11:44:15.356Z,12.40
2019-04-06T11:46:51.214Z,12.00
2019-04-06T11:49:29.895Z,12.83
2019-04-06T11:52:05.798Z,10.57
2019-04-06T11:54:41.906Z,10.53
2019-04-06T11:57:17.719Z,10.33
2019-04-06T11:59:50.921Z,11.17
2019-04-06T12:02:24.069Z,10.30
2019-04-06T12:05:09.824Z,11.10
2019-04-06T12:07:55.379Z,11.23
2019-04-06T12:10:25.581Z,11.20
2019-04-06T12:13:01.675Z,12.27
2019-04-06T12:15:34.995Z,11.67
2019-04-06T12:18:05.227Z,10.87
2019-04-06T12:20:37.779Z,11.80
2019-04-06T12:23:07.899Z,11.80
2019-04-06T12:25:38.080Z,12.67
2019-04-06T12:28:11.206Z,11.97
2019-04-06T12:30:41.375Z,11.97
2019-04-06T12:33:20.711Z,12.60
2019-04-06T12:36:07.213Z,11.20
2019-04-06T12:38:39.793Z,10.93
2019-04-06T12:41:18.631Z,10.47
2019-04-06T12:43:48.778Z,9.50
2019-04-06T12:46:24.931Z,11.13
2019-04-06T12:48:55.071Z,12.20
2019-04-06T12:51:37.451Z,11.40
2019-04-06T12:54:10.555Z,11.87
2019-04-06T12:56:46.603Z,10.57
2019-04-06T12:59:16.775Z,12.93
2019-04-06T13:02:05.119Z,11.67
2019-04-06T13:04:40.769Z,10.53
2019-04-06T13:07:27.285Z,10.60
2019-04-06T13:10:14.075Z,11.07
2019-04-06T13:13:00.022Z,11.13
2019-04-06T13:15:46.487Z,11.97
2019-04-06T13:18:35.105Z,11.37
2019-04-06T13:21:22.910Z,10.67
2019-04-06T13:24:05.372Z,10.17
2019-04-06T13:26:44.460Z,10.67
2019-04-06T13:29:29.946Z,10.83
2019-04-06T13:32:17.949Z,11.33
2019-04-06T13:35:05.498Z,10.60
2019-04-06T13:37:38.918Z,12.73
2019-04-06T13:40:12.758Z,11.20
2019-04-06T13:42:42.882Z,12.90
2019-04-06T13:45:16.157Z,12.10
2019-04-06T13:48:01.419Z,11.93
2019-04-06T13:50:34.064Z,11.70
2019-04-06T13:53:12.834Z,12.40
2019-04-06T13:55:42.983Z,11.23
2019-04-06T13:58:13.121Z,12.07
2019-04-06T14:00:43.290Z,11.33
2019-04-06T14:03:13.439Z,12.80
2019-04-06T14:05:46.157Z,11.23
2019-04-06T14:08:19.081Z,12.83
2019-04-06T14:11:01.439Z,13.70
2019-04-06T14:13:31.599Z,12.33
2019-04-06T14:16:10.994Z,14.57
2019-04-06T14:18:56.408Z,12.80
2019-04-06T14:21:42.678Z,12.43
2019-04-06T14:24:21.716Z,13.70
2019-04-06T14:26:51.814Z,12.37
2019-04-06T14:29:21.944Z,13.73
2019-04-06T14:31:55.100Z,13.17
2019-04-06T14:34:25.302Z,12.70
2019-04-06T14:36:55.430Z,12.90
2019-04-06T14:39:26.172Z,12.63
2019-04-06T14:42:14.229Z,11.53
2019-04-06T14:44:44.380Z,11.67
2019-04-06T14:47:15.251Z,13.20
2019-04-06T14:49:54.305Z,11.80
2019-04-06T14:52:24.401Z,9.13
2019-04-06T14:54:54.533Z,9.97
2019-04-06T14:57:27.394Z,5.27
2019-04-06T15:00:00.232Z,2.43
2019-04-06T15:02:33.719Z,2.17
2019-04-06T15:05:25.716Z,3.00
2019-04-06T15:07:57.044Z,1.90
2019-04-06T15:10:43.459Z,2.00
2019-04-06T15:13:25.450Z,2.67
2019-04-06T15:16:07.562Z,2.53
2019-04-06T15:18:37.690Z,2.53
2019-04-06T15:21:24.401Z,2.00
2019-04-06T15:24:06.671Z,3.60
2019-04-06T15:26:36.843Z,1.70
2019-04-06T15:29:06.994Z,1.50
2019-04-06T15:31:53.536Z,1.67
2019-04-06T15:34:23.670Z,1.80
2019-04-06T15:37:03.192Z,1.70
2019-04-06T15:39:36.558Z,2.40
2019-04-06T15:42:09.457Z,2.00
2019-04-06T15:44:42.491Z,2.20
2019-04-06T15:47:18.548Z,2.10
2019-04-06T15:49:48.673Z,2.27
2019-04-06T15:52:21.574Z,2.00
2019-04-06T15:55:02.671Z,2.10
2019-04-06T15:57:33.233Z,2.53
2019-04-06T16:00:03.560Z,2.03
2019-04-06T16:02:33.667Z,2.17
2019-04-06T16:05:09.917Z,2.27
2019-04-06T16:07:48.792Z,2.47
2019-04-06T16:10:18.890Z,3.47
2019-04-06T16:12:49.004Z,14.10
2019-04-06T16:15:28.408Z,2.57
2019-04-06T16:18:04.421Z,2.40
2019-04-06T16:20:46.572Z,2.03
2019-04-06T16:23:29.051Z,2.33
2019-04-06T16:26:08.454Z,1.67
2019-04-06T16:28:47.734Z,1.60
2019-04-06T16:31:17.801Z,2.30
2019-04-06T16:34:03.754Z,1.87
2019-04-06T16:36:50.270Z,1.60
2019-04-06T16:39:37.024Z,1.87
2019-04-06T16:42:24.773Z,1.90
2019-04-06T16:45:00.691Z,2.80
2019-04-06T16:47:36.878Z,2.47
2019-04-06T16:50:07.476Z,1.80
2019-04-06T16:52:40.776Z,2.83
2019-04-06T16:55:11.037Z,2.37
2019-04-06T16:57:43.908Z,2.40
2019-04-06T17:00:19.718Z,1.80
2019-04-06T17:02:55.221Z,4.30
2019-04-06T17:05:25.895Z,3.43
2019-04-06T17:08:09.740Z,3.43
2019-04-06T17:10:48.638Z,2.83
2019-04-06T17:13:27.528Z,3.10
2019-04-06T17:15:57.835Z,2.03
2019-04-06T17:18:30.746Z,2.20
2019-04-06T17:21:01.172Z,2.20
2019-04-06T17:23:36.771Z,2.57
2019-04-06T17:26:07.235Z,2.00
2019-04-06T17:28:45.868Z,3.00
2019-04-06T17:31:32.286Z,2.10
2019-04-06T17:34:18.344Z,2.07
2019-04-06T17:36:48.825Z,2.70
2019-04-06T17:39:34.576Z,1.90
2019-04-06T17:42:10.938Z,2.53
2019-04-06T17:44:44.422Z,1.80
2019-04-06T17:47:20.825Z,1.60
2019-04-06T17:50:00.057Z,1.70
2019-04-06T17:52:36.403Z,1.73
2019-04-06T17:55:14.491Z,2.40
2019-04-06T17:58:01.462Z,1.90
2019-04-06T18:00:40.775Z,2.77
2019-04-06T18:03:14.000Z,1.77
2019-04-06T18:05:44.141Z,2.37
2019-04-06T18:08:29.041Z,2.20
2019-04-06T18:11:15.332Z,1.73
2019-04-06T18:13:45.501Z,2.00
2019-04-06T18:16:13.980Z,2.53
2019-04-06T18:18:42.933Z,2.00
2019-04-06T18:21:11.812Z,2.03
2019-04-06T18:23:40.368Z,2.00
2019-04-06T18:26:08.937Z,2.10
2019-04-06T18:28:37.442Z,2.33
2019-04-06T18:31:10.403Z,2.60
2019-04-06T18:33:38.987Z,3.10
2019-04-06T18:36:07.499Z,3.03
2019-04-06T18:38:37.627Z,1.80
2019-04-06T18:41:06.100Z,2.00
2019-04-06T18:43:34.719Z,2.63
2019-04-06T18:46:03.434Z,1.80
2019-04-06T18:48:32.006Z,2.00
2019-04-06T18:51:01.084Z,1.70
2019-04-06T18:53:29.845Z,2.63
2019-04-06T18:55:58.506Z,2.20
2019-04-06T18:58:27.062Z,1.90
2019-04-06T19:00:55.633Z,2.43
2019-04-06T19:03:24.215Z,4.47
2019-04-06T19:05:52.852Z,3.60
2019-04-06T19:08:21.329Z,2.20
2019-04-06T19:10:50.001Z,1.83
2019-04-06T19:13:18.537Z,2.57
2019-04-06T19:15:47.099Z,2.27
2019-04-06T19:18:15.834Z,3.00
2019-04-06T19:20:44.421Z,2.73
2019-04-06T19:23:12.900Z,2.10
2019-04-06T19:25:41.485Z,2.10
2019-04-06T19:28:10.012Z,2.00
2019-04-06T19:30:38.520Z,3.27
2019-04-06T19:33:07.078Z,2.53
2019-04-06T19:35:35.594Z,1.73
2019-04-06T19:38:04.288Z,2.30
2019-04-06T19:40:32.754Z,2.17
2019-04-06T19:43:01.253Z,1.83
2019-04-06T19:45:29.735Z,2.83
2019-04-06T19:47:58.399Z,1.80
2019-04-06T19:50:27.341Z,1.90
2019-04-06T19:52:56.279Z,2.07
2019-04-06T19:55:25.559Z,1.83
2019-04-06T19:57:54.084Z,2.07
2019-04-06T20:00:22.830Z,3.30
2019-04-06T20:02:51.359Z,2.33
2019-04-06T20:05:20.013Z,2.57
2019-04-06T20:07:49.058Z,2.00
2019-04-06T20:10:18.244Z,3.03
2019-04-06T20:12:47.037Z,2.87
2019-04-06T20:15:15.794Z,2.57
2019-04-06T20:17:44.293Z,2.50
2019-04-06T20:20:13.224Z,4.10
2019-04-06T20:22:41.758Z,3.07
2019-04-06T20:25:10.569Z,2.17
2019-04-06T20:27:39.097Z,1.83
2019-04-06T20:30:09.757Z,2.57
2019-04-06T20:32:38.419Z,2.77
2019-04-06T20:35:09.436Z,2.20
2019-04-06T20:37:38.582Z,2.13
2019-04-06T20:40:09.648Z,2.73
2019-04-06T20:42:39.455Z,2.60
2019-04-06T20:45:08.617Z,1.87
2019-04-06T20:47:37.182Z,2.90
2019-04-06T20:50:09.263Z,1.80
2019-04-06T20:52:37.732Z,5.60
2019-04-06T20:55:07.179Z,2.13
2019-04-06T20:57:36.287Z,2.30
2019-04-06T21:00:09.702Z,2.20
2019-04-06T21:02:38.293Z,2.63
2019-04-06T21:05:08.574Z,2.20
2019-04-06T21:07:37.134Z,2.93
2019-04-06T21:10:08.980Z,2.77
2019-04-06T21:12:37.472Z,2.20
2019-04-06T21:15:16.957Z,3.17
2019-04-06T21:17:38.674Z,2.00
2019-04-06T21:20:08.079Z,2.33
2019-04-06T21:22:36.902Z,1.90
2019-04-06T21:25:07.142Z,1.90
2019-04-06T21:27:36.204Z,2.20
2019-04-06T21:30:07.077Z,3.20
2019-04-06T21:32:36.079Z,2.30
2019-04-06T21:35:08.378Z,2.10
2019-04-06T21:37:37.136Z,2.23
2019-04-06T21:40:06.669Z,2.33
2019-04-06T21:42:35.460Z,2.07
2019-04-06T21:45:06.549Z,2.33
2019-04-06T21:47:35.348Z,2.30
2019-04-06T21:50:08.094Z,2.13
2019-04-06T21:52:38.660Z,3.47
2019-04-06T21:55:10.237Z,2.57
2019-04-06T21:57:38.910Z,3.60
2019-04-06T22:00:12.203Z,2.93
2019-04-06T22:02:41.038Z,2.87
2019-04-06T22:05:10.314Z,2.40
2019-04-06T22:07:48.143Z,2.33
2019-04-06T22:10:09.488Z,2.70
2019-04-06T22:12:37.976Z,2.27
2019-04-06T22:15:07.801Z,2.57
2019-04-06T22:17:36.333Z,2.57
2019-04-06T22:20:05.906Z,2.93
2019-04-06T22:22:35.382Z,2.40
2019-04-06T22:25:05.935Z,2.67
2019-04-06T22:27:34.602Z,3.27
2019-04-06T22:30:06.807Z,2.67
2019-04-06T22:32:35.702Z,3.23
2019-04-06T22:35:07.401Z,2.30
2019-04-06T22:37:37.081Z,2.27
2019-04-06T22:40:08.818Z,2.80
2019-04-06T22:42:37.324Z,2.50
2019-04-06T22:45:08.631Z,3.30
2019-04-06T22:47:38.149Z,2.43
2019-04-06T22:50:07.874Z,2.53
2019-04-06T22:52:36.753Z,4.00
2019-04-06T22:55:09.487Z,4.20
2019-04-06T22:57:38.700Z,4.40
2019-04-06T23:00:13.644Z,3.07
2019-04-06T23:02:47.597Z,2.50
2019-04-06T23:05:17.820Z,2.30
2019-04-06T23:07:46.320Z,2.73
2019-04-06T23:10:14.993Z,2.60
2019-04-06T23:12:43.907Z,2.60
2019-04-06T23:15:12.986Z,2.93
2019-04-06T23:17:42.057Z,3.30
2019-04-06T23:20:10.878Z,3.63
2019-04-06T23:22:39.445Z,2.67
2019-04-06T23:25:08.401Z,3.67
2019-04-06T23:27:37.703Z,3.10
2019-04-06T23:30:07.878Z,2.93
2019-04-06T23:32:36.402Z,5.70
2019-04-06T23:35:05.951Z,8.90
2019-04-06T23:37:34.448Z,9.87
2019-04-06T23:40:03.056Z,10.43
2019-04-06T23:42:31.901Z,11.20
2019-04-06T23:45:00.806Z,10.33
2019-04-06T23:47:29.721Z,12.33
2019-04-06T23:49:58.417Z,10.87
2019-04-06T23:52:27.452Z,10.33
2019-04-06T23:54:57.168Z,11.67
2019-04-06T23:57:26.569Z,10.73
2019-04-06T23:59:55.502Z,9.87
